sensor_id;sensor_type;location;lat;lon;timestamp;P1;durP1;ratioP1;P2;durP2;ratioP2
50585;SDS011;36542;51.700;8.846;2023-03-25T00:00:56;3.70;;;1.30;;
50585;SDS011;36542;51.700;8.846;2023-03-25T00:03:25;1.20;;;1.00;;
50585;SDS011;36542;51.700;8.846;2023-03-25T00:05:57;1.83;;;1.10;;
50585;SDS011;36542;51.700;8.846;2023-03-25T00:08:23;2.27;;;1.40;;
50585;SDS011;36542;51.700;8.846;2023-03-25T00:10:52;2.67;;;1.10;;
50585;SDS011;36542;51.700;8.846;2023-03-25T00:13:19;2.40;;;1.10;;
50585;SDS011;36542;51.700;8.846;2023-03-25T00:15:45;2.10;;;1.00;;
50585;SDS011;36542;51.700;8.846;2023-03-25T00:18:12;1.37;;;0.97;;
50585;SDS011;36542;51.700;8.846;2023-03-25T00:20:38;2.77;;;1.20;;
50585;SDS011;36542;51.700;8.846;2023-03-25T00:23:09;3.03;;;1.20;;
50585;SDS011;36542;51.700;8.846;2023-03-25T00:25:38;2.37;;;1.20;;
50585;SDS011;36542;51.700;8.846;2023-03-25T00:28:03;3.43;;;1.37;;
50585;SDS011;36542;51.700;8.846;2023-03-25T00:30:29;0.80;;;0.80;;
50585;SDS011;36542;51.700;8.846;2023-03-25T00:32:54;1.63;;;1.13;;
50585;SDS011;36542;51.700;8.846;2023-03-25T00:35:21;3.00;;;1.17;;
50585;SDS011;36542;51.700;8.846;2023-03-25T00:37:48;2.80;;;0.90;;
50585;SDS011;36542;51.700;8.846;2023-03-25T00:40:21;2.87;;;0.90;;
50585;SDS011;36542;51.700;8.846;2023-03-25T00:42:47;1.73;;;1.03;;
50585;SDS011;36542;51.700;8.846;2023-03-25T00:45:14;2.60;;;1.10;;
50585;SDS011;36542;51.700;8.846;2023-03-25T00:47:40;4.80;;;1.47;;
50585;SDS011;36542;51.700;8.846;2023-03-25T00:50:06;2.87;;;1.07;;
50585;SDS011;36542;51.700;8.846;2023-03-25T00:52:31;3.77;;;1.10;;
50585;SDS011;36542;51.700;8.846;2023-03-25T00:54:57;3.97;;;1.30;;
50585;SDS011;36542;51.700;8.846;2023-03-25T00:57:22;2.63;;;0.97;;
50585;SDS011;36542;51.700;8.846;2023-03-25T00:59:48;0.90;;;0.90;;
50585;SDS011;36542;51.700;8.846;2023-03-25T01:02:13;2.80;;;1.10;;
50585;SDS011;36542;51.700;8.846;2023-03-25T01:04:40;2.17;;;1.00;;
50585;SDS011;36542;51.700;8.846;2023-03-25T01:07:05;2.30;;;0.93;;
50585;SDS011;36542;51.700;8.846;2023-03-25T01:09:31;1.37;;;0.80;;
50585;SDS011;36542;51.700;8.846;2023-03-25T01:11:57;3.07;;;0.87;;
50585;SDS011;36542;51.700;8.846;2023-03-25T01:14:23;1.53;;;1.00;;
50585;SDS011;36542;51.700;8.846;2023-03-25T01:16:51;3.33;;;0.90;;
50585;SDS011;36542;51.700;8.846;2023-03-25T01:19:19;2.77;;;1.00;;
50585;SDS011;36542;51.700;8.846;2023-03-25T01:21:46;1.70;;;0.87;;
50585;SDS011;36542;51.700;8.846;2023-03-25T01:24:12;2.73;;;1.17;;
50585;SDS011;36542;51.700;8.846;2023-03-25T01:26:39;2.03;;;1.10;;
50585;SDS011;36542;51.700;8.846;2023-03-25T01:29:09;2.03;;;1.10;;
50585;SDS011;36542;51.700;8.846;2023-03-25T01:31:36;1.23;;;0.90;;
50585;SDS011;36542;51.700;8.846;2023-03-25T01:34:02;3.20;;;1.10;;
50585;SDS011;36542;51.700;8.846;2023-03-25T01:36:27;1.03;;;0.90;;
50585;SDS011;36542;51.700;8.846;2023-03-25T01:38:56;3.27;;;1.17;;
50585;SDS011;36542;51.700;8.846;2023-03-25T01:41:23;2.20;;;1.07;;
50585;SDS011;36542;51.700;8.846;2023-03-25T01:43:59;2.53;;;1.20;;
50585;SDS011;36542;51.700;8.846;2023-03-25T01:46:33;2.77;;;1.40;;
50585;SDS011;36542;51.700;8.846;2023-03-25T01:49:00;5.03;;;1.40;;
50585;SDS011;36542;51.700;8.846;2023-03-25T01:51:32;3.03;;;1.20;;
50585;SDS011;36542;51.700;8.846;2023-03-25T01:54:00;4.77;;;1.60;;
50585;SDS011;36542;51.700;8.846;2023-03-25T01:56:27;3.03;;;1.20;;
50585;SDS011;36542;51.700;8.846;2023-03-25T01:58:57;4.33;;;1.53;;
50585;SDS011;36542;51.700;8.846;2023-03-25T02:01:26;2.00;;;1.43;;
50585;SDS011;36542;51.700;8.846;2023-03-25T02:03:52;5.03;;;1.70;;
50585;SDS011;36542;51.700;8.846;2023-03-25T02:06:27;1.90;;;1.30;;
50585;SDS011;36542;51.700;8.846;2023-03-25T02:08:57;5.37;;;1.57;;
50585;SDS011;36542;51.700;8.846;2023-03-25T02:11:24;3.47;;;1.77;;
50585;SDS011;36542;51.700;8.846;2023-03-25T02:13:53;2.67;;;1.40;;
50585;SDS011;36542;51.700;8.846;2023-03-25T02:16:43;3.03;;;2.03;;
50585;SDS011;36542;51.700;8.846;2023-03-25T02:30:52;4.00;;;2.20;;
50585;SDS011;36542;51.700;8.846;2023-03-25T02:39:38;4.27;;;1.73;;
50585;SDS011;36542;51.700;8.846;2023-03-25T02:42:14;5.80;;;2.20;;
50585;SDS011;36542;51.700;8.846;2023-03-25T02:47:18;5.07;;;1.80;;
50585;SDS011;36542;51.700;8.846;2023-03-25T02:49:48;5.93;;;2.03;;
50585;SDS011;36542;51.700;8.846;2023-03-25T02:52:19;2.63;;;1.90;;
50585;SDS011;36542;51.700;8.846;2023-03-25T02:54:51;6.53;;;2.10;;
50585;SDS011;36542;51.700;8.846;2023-03-25T02:57:21;4.60;;;2.13;;
50585;SDS011;36542;51.700;8.846;2023-03-25T02:59:49;5.07;;;2.10;;
50585;SDS011;36542;51.700;8.846;2023-03-25T03:02:18;4.10;;;1.80;;
50585;SDS011;36542;51.700;8.846;2023-03-25T03:04:55;4.03;;;1.90;;
50585;SDS011;36542;51.700;8.846;2023-03-25T03:07:25;6.60;;;1.90;;
50585;SDS011;36542;51.700;8.846;2023-03-25T03:23:40;6.07;;;2.97;;
50585;SDS011;36542;51.700;8.846;2023-03-25T03:29:06;7.87;;;3.20;;
50585;SDS011;36542;51.700;8.846;2023-03-25T03:31:49;6.33;;;2.77;;
50585;SDS011;36542;51.700;8.846;2023-03-25T03:34:24;7.33;;;3.30;;
50585;SDS011;36542;51.700;8.846;2023-03-25T03:36:54;8.10;;;3.33;;
50585;SDS011;36542;51.700;8.846;2023-03-25T03:39:25;8.00;;;3.17;;
50585;SDS011;36542;51.700;8.846;2023-03-25T03:42:00;9.13;;;3.10;;
50585;SDS011;36542;51.700;8.846;2023-03-25T03:44:32;7.20;;;2.83;;
50585;SDS011;36542;51.700;8.846;2023-03-25T03:47:01;4.73;;;2.67;;
50585;SDS011;36542;51.700;8.846;2023-03-25T03:49:33;5.23;;;2.30;;
50585;SDS011;36542;51.700;8.846;2023-03-25T03:55:08;5.13;;;2.97;;
50585;SDS011;36542;51.700;8.846;2023-03-25T03:57:45;6.20;;;2.67;;
50585;SDS011;36542;51.700;8.846;2023-03-25T04:00:21;5.43;;;2.77;;
50585;SDS011;36542;51.700;8.846;2023-03-25T04:03:06;5.93;;;3.00;;
50585;SDS011;36542;51.700;8.846;2023-03-25T04:05:49;6.30;;;3.00;;
50585;SDS011;36542;51.700;8.846;2023-03-25T04:11:17;4.57;;;3.00;;
50585;SDS011;36542;51.700;8.846;2023-03-25T04:13:46;3.63;;;2.60;;
50585;SDS011;36542;51.700;8.846;2023-03-25T04:16:16;4.83;;;2.80;;
50585;SDS011;36542;51.700;8.846;2023-03-25T04:18:41;6.40;;;2.70;;
50585;SDS011;36542;51.700;8.846;2023-03-25T04:21:07;6.00;;;2.67;;
50585;SDS011;36542;51.700;8.846;2023-03-25T04:23:33;5.17;;;2.50;;
50585;SDS011;36542;51.700;8.846;2023-03-25T04:26:01;5.30;;;2.63;;
50585;SDS011;36542;51.700;8.846;2023-03-25T04:28:28;5.83;;;2.57;;
50585;SDS011;36542;51.700;8.846;2023-03-25T04:30:55;4.13;;;2.40;;
50585;SDS011;36542;51.700;8.846;2023-03-25T04:33:24;4.07;;;2.53;;
50585;SDS011;36542;51.700;8.846;2023-03-25T04:35:50;4.43;;;2.23;;
50585;SDS011;36542;51.700;8.846;2023-03-25T04:38:17;4.87;;;2.70;;
50585;SDS011;36542;51.700;8.846;2023-03-25T04:40:46;6.23;;;2.70;;
50585;SDS011;36542;51.700;8.846;2023-03-25T04:43:12;6.50;;;2.30;;
50585;SDS011;36542;51.700;8.846;2023-03-25T04:45:38;4.07;;;2.40;;
50585;SDS011;36542;51.700;8.846;2023-03-25T04:48:07;3.80;;;2.27;;
50585;SDS011;36542;51.700;8.846;2023-03-25T04:50:45;5.10;;;2.70;;
50585;SDS011;36542;51.700;8.846;2023-03-25T04:53:10;5.27;;;2.30;;
50585;SDS011;36542;51.700;8.846;2023-03-25T04:55:36;5.50;;;2.57;;
50585;SDS011;36542;51.700;8.846;2023-03-25T04:58:01;5.33;;;2.27;;
50585;SDS011;36542;51.700;8.846;2023-03-25T05:00:27;4.30;;;2.30;;
50585;SDS011;36542;51.700;8.846;2023-03-25T05:02:53;6.13;;;2.10;;
50585;SDS011;36542;51.700;8.846;2023-03-25T05:05:21;5.50;;;2.43;;
50585;SDS011;36542;51.700;8.846;2023-03-25T05:07:48;3.57;;;2.20;;
50585;SDS011;36542;51.700;8.846;2023-03-25T05:10:18;4.40;;;2.40;;
50585;SDS011;36542;51.700;8.846;2023-03-25T05:12:45;4.77;;;2.13;;
50585;SDS011;36542;51.700;8.846;2023-03-25T05:15:11;6.43;;;2.20;;
50585;SDS011;36542;51.700;8.846;2023-03-25T05:17:37;2.37;;;2.00;;
50585;SDS011;36542;51.700;8.846;2023-03-25T05:20:03;3.50;;;2.07;;
50585;SDS011;36542;51.700;8.846;2023-03-25T05:22:32;4.20;;;2.53;;
50585;SDS011;36542;51.700;8.846;2023-03-25T05:24:57;6.40;;;2.63;;
50585;SDS011;36542;51.700;8.846;2023-03-25T05:27:26;6.87;;;2.53;;
50585;SDS011;36542;51.700;8.846;2023-03-25T05:29:54;6.33;;;2.87;;
50585;SDS011;36542;51.700;8.846;2023-03-25T05:32:22;5.80;;;2.97;;
50585;SDS011;36542;51.700;8.846;2023-03-25T05:34:49;5.33;;;2.23;;
50585;SDS011;36542;51.700;8.846;2023-03-25T05:37:17;3.93;;;2.50;;
50585;SDS011;36542;51.700;8.846;2023-03-25T05:39:43;3.93;;;2.83;;
50585;SDS011;36542;51.700;8.846;2023-03-25T05:42:08;4.27;;;2.97;;
50585;SDS011;36542;51.700;8.846;2023-03-25T05:44:34;4.20;;;2.87;;
50585;SDS011;36542;51.700;8.846;2023-03-25T05:47:00;4.83;;;2.90;;
50585;SDS011;36542;51.700;8.846;2023-03-25T05:49:26;5.17;;;2.93;;
50585;SDS011;36542;51.700;8.846;2023-03-25T05:51:52;3.87;;;3.10;;
50585;SDS011;36542;51.700;8.846;2023-03-25T05:54:19;5.13;;;2.97;;
50585;SDS011;36542;51.700;8.846;2023-03-25T05:56:52;6.60;;;3.43;;
50585;SDS011;36542;51.700;8.846;2023-03-25T05:59:17;3.30;;;3.00;;
50585;SDS011;36542;51.700;8.846;2023-03-25T06:01:44;6.83;;;3.27;;
50585;SDS011;36542;51.700;8.846;2023-03-25T06:04:10;3.20;;;2.77;;
50585;SDS011;36542;51.700;8.846;2023-03-25T06:06:37;5.27;;;3.00;;
50585;SDS011;36542;51.700;8.846;2023-03-25T06:09:04;4.40;;;2.50;;
50585;SDS011;36542;51.700;8.846;2023-03-25T06:11:31;2.80;;;2.60;;
50585;SDS011;36542;51.700;8.846;2023-03-25T06:14:02;3.27;;;2.63;;
50585;SDS011;36542;51.700;8.846;2023-03-25T06:16:29;3.50;;;3.20;;
50585;SDS011;36542;51.700;8.846;2023-03-25T06:18:55;5.43;;;3.20;;
50585;SDS011;36542;51.700;8.846;2023-03-25T06:21:23;6.83;;;2.90;;
50585;SDS011;36542;51.700;8.846;2023-03-25T06:23:50;4.30;;;2.67;;
50585;SDS011;36542;51.700;8.846;2023-03-25T06:26:18;4.63;;;2.97;;
50585;SDS011;36542;51.700;8.846;2023-03-25T06:28:45;5.43;;;2.50;;
50585;SDS011;36542;51.700;8.846;2023-03-25T06:31:14;4.77;;;2.40;;
50585;SDS011;36542;51.700;8.846;2023-03-25T06:33:41;5.57;;;2.60;;
50585;SDS011;36542;51.700;8.846;2023-03-25T06:36:08;3.80;;;2.60;;
50585;SDS011;36542;51.700;8.846;2023-03-25T06:38:35;6.13;;;2.70;;
50585;SDS011;36542;51.700;8.846;2023-03-25T06:41:01;4.43;;;2.40;;
50585;SDS011;36542;51.700;8.846;2023-03-25T06:43:27;6.80;;;2.67;;
50585;SDS011;36542;51.700;8.846;2023-03-25T06:45:53;4.03;;;2.57;;
50585;SDS011;36542;51.700;8.846;2023-03-25T06:48:18;6.47;;;2.93;;
50585;SDS011;36542;51.700;8.846;2023-03-25T06:50:44;5.10;;;2.27;;
50585;SDS011;36542;51.700;8.846;2023-03-25T06:53:09;6.43;;;2.63;;
50585;SDS011;36542;51.700;8.846;2023-03-25T06:55:35;4.60;;;1.83;;
50585;SDS011;36542;51.700;8.846;2023-03-25T06:58:02;7.90;;;2.37;;
50585;SDS011;36542;51.700;8.846;2023-03-25T07:00:28;5.60;;;2.40;;
50585;SDS011;36542;51.700;8.846;2023-03-25T07:02:53;6.70;;;2.57;;
50585;SDS011;36542;51.700;8.846;2023-03-25T07:05:19;11.43;;;2.60;;
50585;SDS011;36542;51.700;8.846;2023-03-25T07:07:45;6.03;;;2.63;;
50585;SDS011;36542;51.700;8.846;2023-03-25T07:10:11;7.67;;;2.33;;
50585;SDS011;36542;51.700;8.846;2023-03-25T07:12:37;5.57;;;2.30;;
50585;SDS011;36542;51.700;8.846;2023-03-25T07:15:03;8.23;;;2.20;;
50585;SDS011;36542;51.700;8.846;2023-03-25T07:17:29;5.17;;;1.83;;
50585;SDS011;36542;51.700;8.846;2023-03-25T07:19:54;3.23;;;1.87;;
50585;SDS011;36542;51.700;8.846;2023-03-25T07:22:20;4.37;;;1.90;;
50585;SDS011;36542;51.700;8.846;2023-03-25T07:24:45;6.77;;;1.70;;
50585;SDS011;36542;51.700;8.846;2023-03-25T07:27:11;5.27;;;2.27;;
50585;SDS011;36542;51.700;8.846;2023-03-25T07:29:37;3.63;;;1.60;;
50585;SDS011;36542;51.700;8.846;2023-03-25T07:32:03;2.33;;;1.57;;
50585;SDS011;36542;51.700;8.846;2023-03-25T07:34:29;2.57;;;1.03;;
50585;SDS011;36542;51.700;8.846;2023-03-25T07:36:55;1.50;;;1.00;;
50585;SDS011;36542;51.700;8.846;2023-03-25T07:39:20;1.37;;;1.20;;
50585;SDS011;36542;51.700;8.846;2023-03-25T07:41:49;2.27;;;1.23;;
50585;SDS011;36542;51.700;8.846;2023-03-25T07:44:15;4.53;;;1.20;;
50585;SDS011;36542;51.700;8.846;2023-03-25T07:46:40;0.97;;;0.90;;
50585;SDS011;36542;51.700;8.846;2023-03-25T07:49:05;4.73;;;1.40;;
50585;SDS011;36542;51.700;8.846;2023-03-25T07:51:31;2.23;;;1.20;;
50585;SDS011;36542;51.700;8.846;2023-03-25T07:53:58;1.90;;;1.20;;
50585;SDS011;36542;51.700;8.846;2023-03-25T07:56:24;1.87;;;1.33;;
50585;SDS011;36542;51.700;8.846;2023-03-25T07:58:50;1.23;;;0.93;;
50585;SDS011;36542;51.700;8.846;2023-03-25T08:01:15;3.00;;;1.33;;
50585;SDS011;36542;51.700;8.846;2023-03-25T08:03:40;3.30;;;1.10;;
50585;SDS011;36542;51.700;8.846;2023-03-25T08:06:06;2.27;;;1.10;;
50585;SDS011;36542;51.700;8.846;2023-03-25T08:08:33;1.70;;;1.20;;
50585;SDS011;36542;51.700;8.846;2023-03-25T08:10:59;3.57;;;1.50;;
50585;SDS011;36542;51.700;8.846;2023-03-25T08:13:25;3.30;;;1.40;;
50585;SDS011;36542;51.700;8.846;2023-03-25T08:15:51;2.80;;;1.17;;
50585;SDS011;36542;51.700;8.846;2023-03-25T08:18:17;3.60;;;1.50;;
50585;SDS011;36542;51.700;8.846;2023-03-25T08:20:42;4.13;;;1.43;;
50585;SDS011;36542;51.700;8.846;2023-03-25T08:23:08;1.73;;;1.60;;
50585;SDS011;36542;51.700;8.846;2023-03-25T08:25:42;2.13;;;1.20;;
50585;SDS011;36542;51.700;8.846;2023-03-25T08:28:07;1.93;;;1.17;;
50585;SDS011;36542;51.700;8.846;2023-03-25T08:30:35;1.57;;;1.10;;
50585;SDS011;36542;51.700;8.846;2023-03-25T08:33:02;2.30;;;1.13;;
50585;SDS011;36542;51.700;8.846;2023-03-25T08:35:28;1.33;;;1.13;;
50585;SDS011;36542;51.700;8.846;2023-03-25T08:37:54;2.30;;;1.17;;
50585;SDS011;36542;51.700;8.846;2023-03-25T08:40:20;3.57;;;1.40;;
50585;SDS011;36542;51.700;8.846;2023-03-25T08:42:45;1.73;;;1.57;;
50585;SDS011;36542;51.700;8.846;2023-03-25T08:45:11;2.53;;;1.60;;
50585;SDS011;36542;51.700;8.846;2023-03-25T08:47:39;3.70;;;1.77;;
50585;SDS011;36542;51.700;8.846;2023-03-25T08:50:06;2.77;;;1.50;;
50585;SDS011;36542;51.700;8.846;2023-03-25T08:52:32;4.67;;;1.57;;
50585;SDS011;36542;51.700;8.846;2023-03-25T08:54:57;3.00;;;1.60;;
50585;SDS011;36542;51.700;8.846;2023-03-25T08:57:23;3.10;;;1.60;;
50585;SDS011;36542;51.700;8.846;2023-03-25T08:59:48;2.30;;;1.40;;
50585;SDS011;36542;51.700;8.846;2023-03-25T09:02:14;4.33;;;1.90;;
50585;SDS011;36542;51.700;8.846;2023-03-25T09:04:39;2.03;;;1.20;;
50585;SDS011;36542;51.700;8.846;2023-03-25T09:07:05;2.30;;;1.30;;
50585;SDS011;36542;51.700;8.846;2023-03-25T09:09:34;2.27;;;1.60;;
50585;SDS011;36542;51.700;8.846;2023-03-25T09:12:03;3.27;;;1.00;;
50585;SDS011;36542;51.700;8.846;2023-03-25T09:14:30;3.33;;;0.97;;
50585;SDS011;36542;51.700;8.846;2023-03-25T09:16:55;2.27;;;1.13;;
50585;SDS011;36542;51.700;8.846;2023-03-25T09:19:21;3.13;;;1.10;;
50585;SDS011;36542;51.700;8.846;2023-03-25T09:21:46;2.53;;;1.27;;
50585;SDS011;36542;51.700;8.846;2023-03-25T09:24:12;3.67;;;1.70;;
50585;SDS011;36542;51.700;8.846;2023-03-25T09:26:37;1.60;;;1.27;;
50585;SDS011;36542;51.700;8.846;2023-03-25T09:29:03;2.53;;;1.40;;
50585;SDS011;36542;51.700;8.846;2023-03-25T09:31:29;3.10;;;1.40;;
50585;SDS011;36542;51.700;8.846;2023-03-25T09:33:54;6.73;;;2.10;;
50585;SDS011;36542;51.700;8.846;2023-03-25T09:36:20;5.47;;;2.00;;
50585;SDS011;36542;51.700;8.846;2023-03-25T09:38:46;4.23;;;2.07;;
50585;SDS011;36542;51.700;8.846;2023-03-25T09:44:18;5.27;;;2.30;;
50585;SDS011;36542;51.700;8.846;2023-03-25T09:46:50;4.73;;;2.13;;
50585;SDS011;36542;51.700;8.846;2023-03-25T09:49:17;4.70;;;2.07;;
50585;SDS011;36542;51.700;8.846;2023-03-25T09:51:47;4.37;;;2.10;;
50585;SDS011;36542;51.700;8.846;2023-03-25T09:54:17;5.83;;;2.50;;
50585;SDS011;36542;51.700;8.846;2023-03-25T09:57:01;7.83;;;2.10;;
50585;SDS011;36542;51.700;8.846;2023-03-25T09:59:35;4.07;;;2.30;;
50585;SDS011;36542;51.700;8.846;2023-03-25T10:04:49;4.53;;;1.97;;
50585;SDS011;36542;51.700;8.846;2023-03-25T10:12:38;6.50;;;2.10;;
50585;SDS011;36542;51.700;8.846;2023-03-25T10:15:13;6.53;;;2.40;;
50585;SDS011;36542;51.700;8.846;2023-03-25T10:18:07;8.53;;;2.37;;
50585;SDS011;36542;51.700;8.846;2023-03-25T10:20:59;5.83;;;2.03;;
50585;SDS011;36542;51.700;8.846;2023-03-25T10:23:45;4.40;;;1.87;;
50585;SDS011;36542;51.700;8.846;2023-03-25T10:26:24;7.50;;;2.20;;
50585;SDS011;36542;51.700;8.846;2023-03-25T10:28:55;4.33;;;2.07;;
50585;SDS011;36542;51.700;8.846;2023-03-25T10:31:27;6.17;;;2.10;;
50585;SDS011;36542;51.700;8.846;2023-03-25T10:33:56;7.20;;;2.00;;
50585;SDS011;36542;51.700;8.846;2023-03-25T10:36:33;6.47;;;2.10;;
50585;SDS011;36542;51.700;8.846;2023-03-25T10:39:03;10.47;;;3.20;;
50585;SDS011;36542;51.700;8.846;2023-03-25T10:41:37;9.33;;;3.07;;
50585;SDS011;36542;51.700;8.846;2023-03-25T10:44:08;7.53;;;2.80;;
50585;SDS011;36542;51.700;8.846;2023-03-25T10:46:45;10.83;;;2.80;;
50585;SDS011;36542;51.700;8.846;2023-03-25T10:49:24;5.57;;;2.23;;
50585;SDS011;36542;51.700;8.846;2023-03-25T10:51:52;8.57;;;2.50;;
50585;SDS011;36542;51.700;8.846;2023-03-25T10:54:18;12.33;;;4.10;;
50585;SDS011;36542;51.700;8.846;2023-03-25T10:56:47;7.83;;;2.43;;
50585;SDS011;36542;51.700;8.846;2023-03-25T10:59:30;6.37;;;2.63;;
50585;SDS011;36542;51.700;8.846;2023-03-25T11:02:17;4.20;;;2.07;;
50585;SDS011;36542;51.700;8.846;2023-03-25T11:04:51;5.53;;;2.00;;
50585;SDS011;36542;51.700;8.846;2023-03-25T11:07:21;6.57;;;2.53;;
50585;SDS011;36542;51.700;8.846;2023-03-25T11:09:50;4.63;;;2.20;;
50585;SDS011;36542;51.700;8.846;2023-03-25T11:12:17;8.47;;;3.37;;
50585;SDS011;36542;51.700;8.846;2023-03-25T11:14:44;7.53;;;2.50;;
50585;SDS011;36542;51.700;8.846;2023-03-25T11:17:18;11.63;;;4.00;;
50585;SDS011;36542;51.700;8.846;2023-03-25T11:19:59;7.70;;;3.13;;
50585;SDS011;36542;51.700;8.846;2023-03-25T11:22:31;8.97;;;3.83;;
50585;SDS011;36542;51.700;8.846;2023-03-25T11:25:02;6.77;;;2.50;;
50585;SDS011;36542;51.700;8.846;2023-03-25T11:27:31;5.13;;;2.77;;
50585;SDS011;36542;51.700;8.846;2023-03-25T11:30:13;7.53;;;2.63;;
50585;SDS011;36542;51.700;8.846;2023-03-25T11:32:55;6.10;;;2.53;;
50585;SDS011;36542;51.700;8.846;2023-03-25T11:35:30;11.97;;;2.57;;
50585;SDS011;36542;51.700;8.846;2023-03-25T11:38:01;6.13;;;2.73;;
50585;SDS011;36542;51.700;8.846;2023-03-25T11:40:37;7.60;;;2.87;;
50585;SDS011;36542;51.700;8.846;2023-03-25T11:43:21;8.33;;;2.60;;
50585;SDS011;36542;51.700;8.846;2023-03-25T11:45:50;6.33;;;2.60;;
50585;SDS011;36542;51.700;8.846;2023-03-25T11:48:19;9.93;;;2.93;;
50585;SDS011;36542;51.700;8.846;2023-03-25T11:50:53;6.57;;;2.80;;
50585;SDS011;36542;51.700;8.846;2023-03-25T11:53:21;7.37;;;2.37;;
50585;SDS011;36542;51.700;8.846;2023-03-25T11:55:50;7.83;;;2.73;;
50585;SDS011;36542;51.700;8.846;2023-03-25T11:58:20;9.77;;;2.30;;
50585;SDS011;36542;51.700;8.846;2023-03-25T12:00:50;7.37;;;3.73;;
50585;SDS011;36542;51.700;8.846;2023-03-25T12:03:22;11.00;;;2.70;;
50585;SDS011;36542;51.700;8.846;2023-03-25T12:08:42;5.30;;;2.50;;
50585;SDS011;36542;51.700;8.846;2023-03-25T12:11:23;8.67;;;3.50;;
50585;SDS011;36542;51.700;8.846;2023-03-25T12:14:14;10.87;;;3.80;;
50585;SDS011;36542;51.700;8.846;2023-03-25T12:20:02;10.17;;;3.70;;
50585;SDS011;36542;51.700;8.846;2023-03-25T12:22:59;9.70;;;3.33;;
50585;SDS011;36542;51.700;8.846;2023-03-25T12:25:33;9.93;;;2.70;;
50585;SDS011;36542;51.700;8.846;2023-03-25T12:39:20;6.63;;;2.77;;
50585;SDS011;36542;51.700;8.846;2023-03-25T12:45:02;8.97;;;3.13;;
50585;SDS011;36542;51.700;8.846;2023-03-25T12:47:41;9.67;;;3.17;;
50585;SDS011;36542;51.700;8.846;2023-03-25T12:52:55;13.40;;;3.30;;
50585;SDS011;36542;51.700;8.846;2023-03-25T12:55:50;12.37;;;2.97;;
50585;SDS011;36542;51.700;8.846;2023-03-25T12:58:52;13.17;;;3.70;;
50585;SDS011;36542;51.700;8.846;2023-03-25T13:01:42;6.37;;;2.80;;
50585;SDS011;36542;51.700;8.846;2023-03-25T13:07:20;4.53;;;1.93;;
50585;SDS011;36542;51.700;8.846;2023-03-25T13:10:02;4.60;;;2.03;;
50585;SDS011;36542;51.700;8.846;2023-03-25T13:13:02;3.43;;;1.90;;
50585;SDS011;36542;51.700;8.846;2023-03-25T13:15:36;10.93;;;2.90;;
50585;SDS011;36542;51.700;8.846;2023-03-25T13:20:47;7.13;;;2.40;;
50585;SDS011;36542;51.700;8.846;2023-03-25T13:23:20;7.43;;;2.57;;
50585;SDS011;36542;51.700;8.846;2023-03-25T13:25:49;6.23;;;2.57;;
50585;SDS011;36542;51.700;8.846;2023-03-25T13:28:22;9.47;;;3.30;;
50585;SDS011;36542;51.700;8.846;2023-03-25T13:30:51;9.23;;;3.10;;
50585;SDS011;36542;51.700;8.846;2023-03-25T13:33:19;7.60;;;2.90;;
50585;SDS011;36542;51.700;8.846;2023-03-25T13:35:54;7.50;;;2.40;;
50585;SDS011;36542;51.700;8.846;2023-03-25T13:38:26;6.53;;;2.70;;
50585;SDS011;36542;51.700;8.846;2023-03-25T13:41:04;5.33;;;2.63;;
50585;SDS011;36542;51.700;8.846;2023-03-25T13:44:34;6.40;;;2.60;;
50585;SDS011;36542;51.700;8.846;2023-03-25T13:46:43;5.93;;;2.20;;
50585;SDS011;36542;51.700;8.846;2023-03-25T13:49:15;8.27;;;2.27;;
50585;SDS011;36542;51.700;8.846;2023-03-25T13:51:47;7.47;;;2.13;;
50585;SDS011;36542;51.700;8.846;2023-03-25T13:54:15;4.83;;;1.80;;
50585;SDS011;36542;51.700;8.846;2023-03-25T13:56:56;3.03;;;1.97;;
50585;SDS011;36542;51.700;8.846;2023-03-25T14:05:32;4.93;;;2.13;;
50585;SDS011;36542;51.700;8.846;2023-03-25T14:11:40;5.90;;;1.70;;
50585;SDS011;36542;51.700;8.846;2023-03-25T14:14:05;4.67;;;1.67;;
50585;SDS011;36542;51.700;8.846;2023-03-25T14:16:37;6.33;;;1.90;;
50585;SDS011;36542;51.700;8.846;2023-03-25T14:19:09;6.13;;;2.23;;
50585;SDS011;36542;51.700;8.846;2023-03-25T14:26:33;6.30;;;1.87;;
50585;SDS011;36542;51.700;8.846;2023-03-25T14:29:04;6.47;;;1.50;;
50585;SDS011;36542;51.700;8.846;2023-03-25T14:31:58;4.43;;;1.97;;
50585;SDS011;36542;51.700;8.846;2023-03-25T14:34:27;6.40;;;1.70;;
50585;SDS011;36542;51.700;8.846;2023-03-25T14:44:32;8.00;;;1.97;;
50585;SDS011;36542;51.700;8.846;2023-03-25T14:49:47;6.00;;;1.53;;
50585;SDS011;36542;51.700;8.846;2023-03-25T14:52:36;6.17;;;1.70;;
50585;SDS011;36542;51.700;8.846;2023-03-25T14:55:09;9.13;;;2.50;;
50585;SDS011;36542;51.700;8.846;2023-03-25T14:57:41;7.50;;;2.10;;
50585;SDS011;36542;51.700;8.846;2023-03-25T15:00:08;5.73;;;2.00;;
50585;SDS011;36542;51.700;8.846;2023-03-25T15:02:42;6.10;;;2.13;;
50585;SDS011;36542;51.700;8.846;2023-03-25T15:05:16;4.03;;;2.20;;
50585;SDS011;36542;51.700;8.846;2023-03-25T15:07:48;6.83;;;1.97;;
50585;SDS011;36542;51.700;8.846;2023-03-25T15:10:22;5.93;;;2.07;;
50585;SDS011;36542;51.700;8.846;2023-03-25T15:12:55;8.00;;;2.07;;
50585;SDS011;36542;51.700;8.846;2023-03-25T15:21:01;3.87;;;1.17;;
50585;SDS011;36542;51.700;8.846;2023-03-25T15:23:40;8.00;;;1.37;;
50585;SDS011;36542;51.700;8.846;2023-03-25T15:26:13;3.20;;;1.00;;
50585;SDS011;36542;51.700;8.846;2023-03-25T15:32:03;4.53;;;1.07;;
50585;SDS011;36542;51.700;8.846;2023-03-25T15:49:25;2.57;;;0.90;;
50585;SDS011;36542;51.700;8.846;2023-03-25T15:54:48;2.97;;;0.87;;
50585;SDS011;36542;51.700;8.846;2023-03-25T15:57:25;4.13;;;1.17;;
50585;SDS011;36542;51.700;8.846;2023-03-25T16:02:47;3.80;;;1.40;;
50585;SDS011;36542;51.700;8.846;2023-03-25T16:05:16;2.97;;;0.97;;
50585;SDS011;36542;51.700;8.846;2023-03-25T16:07:44;2.63;;;0.97;;
50585;SDS011;36542;51.700;8.846;2023-03-25T16:10:12;3.33;;;1.10;;
50585;SDS011;36542;51.700;8.846;2023-03-25T16:12:45;3.43;;;1.30;;
50585;SDS011;36542;51.700;8.846;2023-03-25T16:15:21;7.97;;;1.60;;
50585;SDS011;36542;51.700;8.846;2023-03-25T16:17:50;4.70;;;1.63;;
50585;SDS011;36542;51.700;8.846;2023-03-25T16:20:17;3.27;;;1.27;;
50585;SDS011;36542;51.700;8.846;2023-03-25T16:22:47;5.50;;;2.17;;
50585;SDS011;36542;51.700;8.846;2023-03-25T16:25:21;3.47;;;1.70;;
50585;SDS011;36542;51.700;8.846;2023-03-25T16:27:54;4.80;;;1.50;;
50585;SDS011;36542;51.700;8.846;2023-03-25T16:30:26;2.53;;;1.00;;
50585;SDS011;36542;51.700;8.846;2023-03-25T16:35:31;4.07;;;1.00;;
50585;SDS011;36542;51.700;8.846;2023-03-25T16:37:58;2.17;;;1.20;;
50585;SDS011;36542;51.700;8.846;2023-03-25T16:40:27;2.37;;;0.97;;
50585;SDS011;36542;51.700;8.846;2023-03-25T16:43:12;3.33;;;1.53;;
50585;SDS011;36542;51.700;8.846;2023-03-25T16:45:44;4.63;;;1.50;;
50585;SDS011;36542;51.700;8.846;2023-03-25T16:48:15;4.03;;;1.60;;
50585;SDS011;36542;51.700;8.846;2023-03-25T16:50:45;4.60;;;1.27;;
50585;SDS011;36542;51.700;8.846;2023-03-25T16:53:15;2.97;;;1.33;;
50585;SDS011;36542;51.700;8.846;2023-03-25T16:55:43;4.50;;;1.43;;
50585;SDS011;36542;51.700;8.846;2023-03-25T16:58:19;8.33;;;1.90;;
50585;SDS011;36542;51.700;8.846;2023-03-25T17:00:48;3.30;;;1.40;;
50585;SDS011;36542;51.700;8.846;2023-03-25T17:03:16;5.33;;;1.50;;
50585;SDS011;36542;51.700;8.846;2023-03-25T17:05:55;6.53;;;2.30;;
50585;SDS011;36542;51.700;8.846;2023-03-25T17:08:25;2.97;;;1.30;;
50585;SDS011;36542;51.700;8.846;2023-03-25T17:10:54;4.87;;;1.40;;
50585;SDS011;36542;51.700;8.846;2023-03-25T17:13:31;3.30;;;1.57;;
50585;SDS011;36542;51.700;8.846;2023-03-25T17:16:06;3.00;;;1.30;;
50585;SDS011;36542;51.700;8.846;2023-03-25T17:18:32;2.67;;;1.10;;
50585;SDS011;36542;51.700;8.846;2023-03-25T17:20:59;2.07;;;1.27;;
50585;SDS011;36542;51.700;8.846;2023-03-25T17:23:33;1.23;;;0.97;;
50585;SDS011;36542;51.700;8.846;2023-03-25T17:26:06;5.83;;;1.57;;